sensor_id;sensor_type;location;lat;lon;timestamp;P1;durP1;ratioP1;P2;durP2;ratioP2
33266;SDS011;19638;49.080;11.896;2022-07-10T00:02:33;9.68;;;6.38;;
33266;SDS011;19638;49.080;11.896;2022-07-10T00:06:34;9.48;;;5.43;;
33266;SDS011;19638;49.080;11.896;2022-07-10T00:10:36;10.80;;;6.85;;
33266;SDS011;19638;49.080;11.896;2022-07-10T00:14:37;10.32;;;6.38;;
33266;SDS011;19638;49.080;11.896;2022-07-10T00:18:37;8.88;;;6.05;;
33266;SDS011;19638;49.080;11.896;2022-07-10T00:22:38;13.45;;;7.15;;
33266;SDS011;19638;49.080;11.896;2022-07-10T00:26:41;12.45;;;6.95;;
33266;SDS011;19638;49.080;11.896;2022-07-10T00:30:41;12.93;;;7.30;;
33266;SDS011;19638;49.080;11.896;2022-07-10T00:34:42;10.25;;;7.15;;
33266;SDS011;19638;49.080;11.896;2022-07-10T00:38:42;10.60;;;7.20;;
33266;SDS011;19638;49.080;11.896;2022-07-10T00:42:44;17.58;;;7.30;;
33266;SDS011;19638;49.080;11.896;2022-07-10T00:46:45;9.15;;;6.53;;
33266;SDS011;19638;49.080;11.896;2022-07-10T00:50:46;12.18;;;6.38;;
33266;SDS011;19638;49.080;11.896;2022-07-10T00:54:47;14.57;;;6.78;;
33266;SDS011;19638;49.080;11.896;2022-07-10T00:58:50;14.23;;;6.35;;
33266;SDS011;19638;49.080;11.896;2022-07-10T01:02:51;12.95;;;6.63;;
33266;SDS011;19638;49.080;11.896;2022-07-10T01:06:52;7.95;;;6.15;;
33266;SDS011;19638;49.080;11.896;2022-07-10T01:10:53;14.07;;;6.45;;
33266;SDS011;19638;49.080;11.896;2022-07-10T01:14:55;11.70;;;6.40;;
33266;SDS011;19638;49.080;11.896;2022-07-10T01:18:56;10.85;;;6.03;;
33266;SDS011;19638;49.080;11.896;2022-07-10T01:22:59;9.00;;;5.72;;
33266;SDS011;19638;49.080;11.896;2022-07-10T01:26:59;10.63;;;5.88;;
33266;SDS011;19638;49.080;11.896;2022-07-10T01:31:00;9.63;;;6.30;;
33266;SDS011;19638;49.080;11.896;2022-07-10T01:35:01;10.43;;;5.65;;
33266;SDS011;19638;49.080;11.896;2022-07-10T01:39:03;8.65;;;5.75;;
33266;SDS011;19638;49.080;11.896;2022-07-10T01:43:04;10.02;;;6.05;;
33266;SDS011;19638;49.080;11.896;2022-07-10T01:47:04;8.48;;;5.55;;
33266;SDS011;19638;49.080;11.896;2022-07-10T01:51:05;13.75;;;6.35;;
33266;SDS011;19638;49.080;11.896;2022-07-10T01:55:08;10.15;;;6.32;;
33266;SDS011;19638;49.080;11.896;2022-07-10T01:59:09;10.70;;;6.05;;
33266;SDS011;19638;49.080;11.896;2022-07-10T02:03:10;10.93;;;6.38;;
33266;SDS011;19638;49.080;11.896;2022-07-10T02:07:11;10.75;;;6.35;;
33266;SDS011;19638;49.080;11.896;2022-07-10T02:11:14;9.73;;;6.50;;
33266;SDS011;19638;49.080;11.896;2022-07-10T02:15:14;11.25;;;6.57;;
33266;SDS011;19638;49.080;11.896;2022-07-10T02:19:15;11.05;;;6.53;;
33266;SDS011;19638;49.080;11.896;2022-07-10T02:23:15;10.48;;;6.78;;
33266;SDS011;19638;49.080;11.896;2022-07-10T02:27:18;15.57;;;6.88;;
33266;SDS011;19638;49.080;11.896;2022-07-10T02:31:18;21.05;;;8.90;;
33266;SDS011;19638;49.080;11.896;2022-07-10T02:35:19;12.38;;;7.38;;
33266;SDS011;19638;49.080;11.896;2022-07-10T02:39:19;11.95;;;7.72;;
33266;SDS011;19638;49.080;11.896;2022-07-10T02:43:21;11.57;;;7.20;;
33266;SDS011;19638;49.080;11.896;2022-07-10T02:47:22;11.43;;;6.63;;
33266;SDS011;19638;49.080;11.896;2022-07-10T02:51:23;10.27;;;6.88;;
33266;SDS011;19638;49.080;11.896;2022-07-10T02:55:23;10.52;;;6.85;;
33266;SDS011;19638;49.080;11.896;2022-07-10T02:59:25;14.27;;;7.43;;
33266;SDS011;19638;49.080;11.896;2022-07-10T03:03:26;7.70;;;6.85;;
33266;SDS011;19638;49.080;11.896;2022-07-10T03:07:27;10.13;;;6.60;;
33266;SDS011;19638;49.080;11.896;2022-07-10T03:11:27;15.38;;;7.15;;
33266;SDS011;19638;49.080;11.896;2022-07-10T03:15:29;11.57;;;6.55;;
33266;SDS011;19638;49.080;11.896;2022-07-10T03:19:30;8.82;;;5.60;;
33266;SDS011;19638;49.080;11.896;2022-07-10T03:23:31;7.88;;;6.00;;
33266;SDS011;19638;49.080;11.896;2022-07-10T03:27:32;5.60;;;4.78;;
33266;SDS011;19638;49.080;11.896;2022-07-10T03:31:34;12.30;;;5.05;;
33266;SDS011;19638;49.080;11.896;2022-07-10T03:35:35;5.55;;;4.47;;
33266;SDS011;19638;49.080;11.896;2022-07-10T03:39:35;10.15;;;4.85;;
33266;SDS011;19638;49.080;11.896;2022-07-10T03:43:36;8.52;;;4.65;;
33266;SDS011;19638;49.080;11.896;2022-07-10T03:47:38;4.72;;;4.20;;
33266;SDS011;19638;49.080;11.896;2022-07-10T03:51:40;4.47;;;4.07;;
33266;SDS011;19638;49.080;11.896;2022-07-10T03:55:41;4.45;;;3.88;;
33266;SDS011;19638;49.080;11.896;2022-07-10T03:59:42;8.02;;;3.95;;
33266;SDS011;19638;49.080;11.896;2022-07-10T04:03:44;6.82;;;4.07;;
33266;SDS011;19638;49.080;11.896;2022-07-10T04:07:45;8.63;;;3.78;;
33266;SDS011;19638;49.080;11.896;2022-07-10T04:11:45;9.23;;;4.03;;
33266;SDS011;19638;49.080;11.896;2022-07-10T04:15:46;5.30;;;4.50;;
33266;SDS011;19638;49.080;11.896;2022-07-10T04:19:48;5.32;;;3.90;;
33266;SDS011;19638;49.080;11.896;2022-07-10T04:23:49;6.75;;;3.60;;
33266;SDS011;19638;49.080;11.896;2022-07-10T04:27:49;3.63;;;3.28;;
33266;SDS011;19638;49.080;11.896;2022-07-10T04:31:50;7.70;;;3.85;;
33266;SDS011;19638;49.080;11.896;2022-07-10T04:35:52;5.95;;;3.50;;
33266;SDS011;19638;49.080;11.896;2022-07-10T04:39:52;5.10;;;3.35;;
33266;SDS011;19638;49.080;11.896;2022-07-10T04:43:53;7.40;;;3.60;;
33266;SDS011;19638;49.080;11.896;2022-07-10T04:47:54;8.57;;;3.30;;
33266;SDS011;19638;49.080;11.896;2022-07-10T04:51:56;11.95;;;3.85;;
33266;SDS011;19638;49.080;11.896;2022-07-10T04:55:56;7.90;;;4.28;;
33266;SDS011;19638;49.080;11.896;2022-07-10T04:59:57;4.85;;;3.63;;
33266;SDS011;19638;49.080;11.896;2022-07-10T05:03:58;4.40;;;3.00;;
33266;SDS011;19638;49.080;11.896;2022-07-10T05:08:00;5.90;;;3.15;;
33266;SDS011;19638;49.080;11.896;2022-07-10T05:12:01;6.00;;;3.22;;
33266;SDS011;19638;49.080;11.896;2022-07-10T05:16:01;7.30;;;2.78;;
33266;SDS011;19638;49.080;11.896;2022-07-10T05:20:03;3.85;;;2.70;;
33266;SDS011;19638;49.080;11.896;2022-07-10T05:24:06;7.88;;;2.83;;
33266;SDS011;19638;49.080;11.896;2022-07-10T05:28:06;5.50;;;3.08;;
33266;SDS011;19638;49.080;11.896;2022-07-10T05:32:07;15.05;;;3.03;;
33266;SDS011;19638;49.080;11.896;2022-07-10T05:36:08;7.05;;;2.90;;
33266;SDS011;19638;49.080;11.896;2022-07-10T05:40:11;3.35;;;2.50;;
33266;SDS011;19638;49.080;11.896;2022-07-10T05:44:12;7.13;;;2.50;;
33266;SDS011;19638;49.080;11.896;2022-07-10T05:48:12;6.03;;;2.65;;
33266;SDS011;19638;49.080;11.896;2022-07-10T05:52:13;5.55;;;2.78;;
33266;SDS011;19638;49.080;11.896;2022-07-10T05:56:15;21.40;;;3.20;;
33266;SDS011;19638;49.080;11.896;2022-07-10T06:00:16;3.67;;;2.55;;
33266;SDS011;19638;49.080;11.896;2022-07-10T06:04:16;3.03;;;2.60;;
33266;SDS011;19638;49.080;11.896;2022-07-10T06:08:17;6.15;;;2.92;;
33266;SDS011;19638;49.080;11.896;2022-07-10T06:12:19;3.83;;;2.28;;
33266;SDS011;19638;49.080;11.896;2022-07-10T06:16:20;4.43;;;2.28;;
33266;SDS011;19638;49.080;11.896;2022-07-10T06:20:20;3.45;;;2.20;;
33266;SDS011;19638;49.080;11.896;2022-07-10T06:24:21;2.67;;;2.00;;
33266;SDS011;19638;49.080;11.896;2022-07-10T06:28:23;7.32;;;1.98;;
33266;SDS011;19638;49.080;11.896;2022-07-10T06:32:24;2.10;;;1.60;;
33266;SDS011;19638;49.080;11.896;2022-07-10T06:36:25;3.17;;;1.67;;
33266;SDS011;19638;49.080;11.896;2022-07-10T06:40:26;4.57;;;1.90;;
33266;SDS011;19638;49.080;11.896;2022-07-10T06:44:30;4.65;;;1.70;;
33266;SDS011;19638;49.080;11.896;2022-07-10T06:48:31;1.90;;;1.50;;
33266;SDS011;19638;49.080;11.896;2022-07-10T06:52:32;5.47;;;1.92;;
33266;SDS011;19638;49.080;11.896;2022-07-10T06:56:33;1.83;;;1.58;;
33266;SDS011;19638;49.080;11.896;2022-07-10T07:00:38;2.20;;;1.50;;
33266;SDS011;19638;49.080;11.896;2022-07-10T07:04:41;3.47;;;1.60;;
33266;SDS011;19638;49.080;11.896;2022-07-10T07:08:46;4.82;;;1.90;;
33266;SDS011;19638;49.080;11.896;2022-07-10T07:12:49;4.20;;;1.98;;
33266;SDS011;19638;49.080;11.896;2022-07-10T07:16:54;3.97;;;2.28;;
33266;SDS011;19638;49.080;11.896;2022-07-10T07:21:03;3.38;;;1.70;;
33266;SDS011;19638;49.080;11.896;2022-07-10T07:25:24;2.08;;;1.60;;
33266;SDS011;19638;49.080;11.896;2022-07-10T07:29:28;2.15;;;1.80;;
33266;SDS011;19638;49.080;11.896;2022-07-10T07:33:32;4.78;;;1.50;;
33266;SDS011;19638;49.080;11.896;2022-07-10T07:37:37;3.05;;;1.50;;
33266;SDS011;19638;49.080;11.896;2022-07-10T07:41:41;2.45;;;1.35;;
33266;SDS011;19638;49.080;11.896;2022-07-10T07:45:44;1.60;;;1.50;;
33266;SDS011;19638;49.080;11.896;2022-07-10T07:49:51;4.45;;;1.30;;
33266;SDS011;19638;49.080;11.896;2022-07-10T07:53:54;3.78;;;1.77;;
33266;SDS011;19638;49.080;11.896;2022-07-10T07:57:57;1.95;;;1.30;;
33266;SDS011;19638;49.080;11.896;2022-07-10T08:02:01;1.60;;;1.50;;
33266;SDS011;19638;49.080;11.896;2022-07-10T08:06:05;1.98;;;1.55;;
33266;SDS011;19638;49.080;11.896;2022-07-10T08:10:10;2.38;;;1.38;;
33266;SDS011;19638;49.080;11.896;2022-07-10T08:14:14;6.10;;;1.63;;
33266;SDS011;19638;49.080;11.896;2022-07-10T08:18:18;4.00;;;1.65;;
33266;SDS011;19638;49.080;11.896;2022-07-10T08:22:23;3.55;;;1.48;;
33266;SDS011;19638;49.080;11.896;2022-07-10T08:26:26;2.45;;;1.30;;
33266;SDS011;19638;49.080;11.896;2022-07-10T08:30:29;2.95;;;1.30;;
33266;SDS011;19638;49.080;11.896;2022-07-10T08:34:33;4.07;;;1.63;;
33266;SDS011;19638;49.080;11.896;2022-07-10T08:38:40;3.65;;;1.60;;
33266;SDS011;19638;49.080;11.896;2022-07-10T08:42:43;3.97;;;1.58;;
33266;SDS011;19638;49.080;11.896;2022-07-10T08:46:47;3.70;;;1.48;;
33266;SDS011;19638;49.080;11.896;2022-07-10T08:50:51;4.93;;;1.58;;
33266;SDS011;19638;49.080;11.896;2022-07-10T08:54:57;5.00;;;1.42;;
33266;SDS011;19638;49.080;11.896;2022-07-10T08:59:02;2.20;;;1.17;;
33266;SDS011;19638;49.080;11.896;2022-07-10T09:03:07;1.38;;;1.27;;
33266;SDS011;19638;49.080;11.896;2022-07-10T09:07:11;3.33;;;1.55;;
33266;SDS011;19638;49.080;11.896;2022-07-10T09:11:16;3.35;;;1.60;;
33266;SDS011;19638;49.080;11.896;2022-07-10T09:15:21;2.83;;;1.50;;
33266;SDS011;19638;49.080;11.896;2022-07-10T09:19:26;4.75;;;1.60;;
33266;SDS011;19638;49.080;11.896;2022-07-10T09:23:30;1.50;;;1.20;;
33266;SDS011;19638;49.080;11.896;2022-07-10T09:27:36;4.47;;;1.30;;
33266;SDS011;19638;49.080;11.896;2022-07-10T09:31:55;5.32;;;1.50;;
33266;SDS011;19638;49.080;11.896;2022-07-10T09:36:00;1.30;;;1.20;;
33266;SDS011;19638;49.080;11.896;2022-07-10T09:40:08;5.50;;;1.48;;
33266;SDS011;19638;49.080;11.896;2022-07-10T09:44:13;4.82;;;1.50;;
33266;SDS011;19638;49.080;11.896;2022-07-10T09:48:18;2.33;;;1.38;;
33266;SDS011;19638;49.080;11.896;2022-07-10T09:52:28;2.67;;;1.77;;
33266;SDS011;19638;49.080;11.896;2022-07-10T09:56:41;4.93;;;1.92;;
33266;SDS011;19638;49.080;11.896;2022-07-10T10:00:48;4.82;;;1.50;;
33266;SDS011;19638;49.080;11.896;2022-07-10T10:04:53;2.33;;;1.58;;
33266;SDS011;19638;49.080;11.896;2022-07-10T10:08:58;2.00;;;1.30;;
33266;SDS011;19638;49.080;11.896;2022-07-10T10:13:07;1.67;;;1.50;;
33266;SDS011;19638;49.080;11.896;2022-07-10T10:17:14;2.10;;;1.52;;
33266;SDS011;19638;49.080;11.896;2022-07-10T10:21:20;2.30;;;1.30;;
33266;SDS011;19638;49.080;11.896;2022-07-10T10:25:24;3.75;;;1.30;;
33266;SDS011;19638;49.080;11.896;2022-07-10T10:29:29;1.55;;;1.30;;
33266;SDS011;19638;49.080;11.896;2022-07-10T10:33:43;2.90;;;1.45;;
33266;SDS011;19638;49.080;11.896;2022-07-10T10:38:06;3.20;;;1.33;;
33266;SDS011;19638;49.080;11.896;2022-07-10T10:42:21;2.00;;;1.52;;
33266;SDS011;19638;49.080;11.896;2022-07-10T10:46:52;2.38;;;1.45;;
33266;SDS011;19638;49.080;11.896;2022-07-10T10:51:04;1.23;;;1.10;;
33266;SDS011;19638;49.080;11.896;2022-07-10T10:55:07;1.73;;;1.02;;
33266;SDS011;19638;49.080;11.896;2022-07-10T10:59:23;2.25;;;1.10;;
33266;SDS011;19638;49.080;11.896;2022-07-10T11:12:57;4.15;;;1.35;;
33266;SDS011;19638;49.080;11.896;2022-07-10T11:17:02;2.63;;;1.10;;
33266;SDS011;19638;49.080;11.896;2022-07-10T11:21:06;2.05;;;1.15;;
33266;SDS011;19638;49.080;11.896;2022-07-10T11:25:32;1.35;;;1.15;;
33266;SDS011;19638;49.080;11.896;2022-07-10T11:29:45;1.05;;;0.90;;
33266;SDS011;19638;49.080;11.896;2022-07-10T11:33:55;1.05;;;0.90;;
33266;SDS011;19638;49.080;11.896;2022-07-10T11:37:58;1.38;;;0.90;;
33266;SDS011;19638;49.080;11.896;2022-07-10T11:42:03;2.97;;;1.00;;
33266;SDS011;19638;49.080;11.896;2022-07-10T11:46:08;2.15;;;0.95;;
33266;SDS011;19638;49.080;11.896;2022-07-10T11:50:12;1.88;;;0.98;;
33266;SDS011;19638;49.080;11.896;2022-07-10T11:54:16;0.90;;;0.90;;
33266;SDS011;19638;49.080;11.896;2022-07-10T11:58:22;1.30;;;0.93;;
33266;SDS011;19638;49.080;11.896;2022-07-10T12:02:25;4.97;;;1.20;;
33266;SDS011;19638;49.080;11.896;2022-07-10T12:06:29;3.78;;;0.77;;
33266;SDS011;19638;49.080;11.896;2022-07-10T12:10:34;1.65;;;0.70;;
33266;SDS011;19638;49.080;11.896;2022-07-10T12:14:38;1.65;;;0.80;;
33266;SDS011;19638;49.080;11.896;2022-07-10T12:18:42;1.63;;;0.75;;
33266;SDS011;19638;49.080;11.896;2022-07-10T12:22:46;2.00;;;0.90;;
33266;SDS011;19638;49.080;11.896;2022-07-10T12:26:49;0.82;;;0.82;;
33266;SDS011;19638;49.080;11.896;2022-07-10T12:30:55;2.40;;;0.90;;
33266;SDS011;19638;49.080;11.896;2022-07-10T12:34:58;0.73;;;0.73;;
33266;SDS011;19638;49.080;11.896;2022-07-10T12:39:01;2.70;;;1.00;;
33266;SDS011;19638;49.080;11.896;2022-07-10T12:43:05;1.52;;;1.10;;
33266;SDS011;19638;49.080;11.896;2022-07-10T12:47:10;0.80;;;0.80;;
33266;SDS011;19638;49.080;11.896;2022-07-10T12:51:24;1.23;;;1.10;;
33266;SDS011;19638;49.080;11.896;2022-07-10T12:55:34;0.80;;;0.80;;
33266;SDS011;19638;49.080;11.896;2022-07-10T12:59:38;1.00;;;1.00;;
33266;SDS011;19638;49.080;11.896;2022-07-10T13:03:45;1.48;;;1.33;;
33266;SDS011;19638;49.080;11.896;2022-07-10T13:07:48;1.38;;;0.95;;
33266;SDS011;19638;49.080;11.896;2022-07-10T13:11:52;3.03;;;1.10;;
33266;SDS011;19638;49.080;11.896;2022-07-10T13:15:56;3.63;;;1.13;;
33266;SDS011;19638;49.080;11.896;2022-07-10T13:20:00;0.90;;;0.90;;
33266;SDS011;19638;49.080;11.896;2022-07-10T13:24:04;1.02;;;1.00;;
33266;SDS011;19638;49.080;11.896;2022-07-10T13:28:08;1.15;;;1.05;;
33266;SDS011;19638;49.080;11.896;2022-07-10T13:32:12;1.00;;;1.00;;
33266;SDS011;19638;49.080;11.896;2022-07-10T13:36:17;1.27;;;0.95;;
33266;SDS011;19638;49.080;11.896;2022-07-10T13:40:21;3.15;;;1.27;;
33266;SDS011;19638;49.080;11.896;2022-07-10T13:44:33;1.42;;;1.10;;
33266;SDS011;19638;49.080;11.896;2022-07-10T13:48:36;0.98;;;0.98;;
33266;SDS011;19638;49.080;11.896;2022-07-10T13:52:41;1.10;;;1.00;;
33266;SDS011;19638;49.080;11.896;2022-07-10T13:56:44;1.02;;;1.00;;
33266;SDS011;19638;49.080;11.896;2022-07-10T14:00:47;3.17;;;1.05;;
33266;SDS011;19638;49.080;11.896;2022-07-10T14:04:52;1.58;;;0.90;;
33266;SDS011;19638;49.080;11.896;2022-07-10T14:08:56;1.55;;;1.20;;
33266;SDS011;19638;49.080;11.896;2022-07-10T14:12:59;1.45;;;1.00;;
33266;SDS011;19638;49.080;11.896;2022-07-10T14:17:11;1.15;;;0.95;;
33266;SDS011;19638;49.080;11.896;2022-07-10T14:21:15;2.25;;;1.10;;
33266;SDS011;19638;49.080;11.896;2022-07-10T14:25:19;2.15;;;1.00;;
33266;SDS011;19638;49.080;11.896;2022-07-10T14:29:28;1.38;;;0.90;;
33266;SDS011;19638;49.080;11.896;2022-07-10T14:33:31;1.27;;;1.17;;
33266;SDS011;19638;49.080;11.896;2022-07-10T14:37:35;1.58;;;1.00;;
33266;SDS011;19638;49.080;11.896;2022-07-10T14:41:40;1.23;;;1.10;;
33266;SDS011;19638;49.080;11.896;2022-07-10T14:45:43;1.10;;;0.98;;
33266;SDS011;19638;49.080;11.896;2022-07-10T14:49:51;1.15;;;0.90;;
33266;SDS011;19638;49.080;11.896;2022-07-10T14:53:54;1.00;;;1.00;;
33266;SDS011;19638;49.080;11.896;2022-07-10T14:57:59;0.88;;;0.85;;
33266;SDS011;19638;49.080;11.896;2022-07-10T15:02:02;0.80;;;0.80;;
33266;SDS011;19638;49.080;11.896;2022-07-10T15:06:06;0.80;;;0.80;;
33266;SDS011;19638;49.080;11.896;2022-07-10T15:10:09;0.93;;;0.82;;
33266;SDS011;19638;49.080;11.896;2022-07-10T15:14:15;2.90;;;0.95;;
33266;SDS011;19638;49.080;11.896;2022-07-10T15:18:18;1.20;;;1.13;;
33266;SDS011;19638;49.080;11.896;2022-07-10T15:22:22;3.00;;;0.98;;
33266;SDS011;19638;49.080;11.896;2022-07-10T15:26:26;1.67;;;1.13;;
33266;SDS011;19638;49.080;11.896;2022-07-10T15:30:30;2.13;;;1.00;;
33266;SDS011;19638;49.080;11.896;2022-07-10T15:34:33;0.88;;;0.85;;
33266;SDS011;19638;49.080;11.896;2022-07-10T15:38:37;2.60;;;0.80;;
33266;SDS011;19638;49.080;11.896;2022-07-10T15:42:40;1.75;;;0.88;;
33266;SDS011;19638;49.080;11.896;2022-07-10T15:46:44;1.08;;;1.00;;
33266;SDS011;19638;49.080;11.896;2022-07-10T15:50:48;3.65;;;1.15;;
33266;SDS011;19638;49.080;11.896;2022-07-10T15:54:51;1.92;;;1.10;;
33266;SDS011;19638;49.080;11.896;2022-07-10T15:58:54;1.83;;;0.95;;
33266;SDS011;19638;49.080;11.896;2022-07-10T16:02:59;1.27;;;1.02;;
33266;SDS011;19638;49.080;11.896;2022-07-10T16:07:02;2.50;;;1.00;;
33266;SDS011;19638;49.080;11.896;2022-07-10T16:11:06;1.80;;;1.10;;
33266;SDS011;19638;49.080;11.896;2022-07-10T16:15:09;5.25;;;1.15;;
33266;SDS011;19638;49.080;11.896;2022-07-10T16:19:18;4.18;;;1.00;;
33266;SDS011;19638;49.080;11.896;2022-07-10T16:23:21;0.90;;;0.90;;
33266;SDS011;19638;49.080;11.896;2022-07-10T16:27:25;5.55;;;1.10;;
33266;SDS011;19638;49.080;11.896;2022-07-10T16:31:28;1.13;;;1.02;;
33266;SDS011;19638;49.080;11.896;2022-07-10T16:35:33;1.52;;;1.27;;
33266;SDS011;19638;49.080;11.896;2022-07-10T16:39:36;0.88;;;0.88;;
33266;SDS011;19638;49.080;11.896;2022-07-10T16:43:39;2.75;;;1.25;;
33266;SDS011;19638;49.080;11.896;2022-07-10T16:47:43;1.23;;;1.08;;
33266;SDS011;19638;49.080;11.896;2022-07-10T16:51:48;1.23;;;1.00;;
33266;SDS011;19638;49.080;11.896;2022-07-10T16:55:51;1.25;;;1.05;;
33266;SDS011;19638;49.080;11.896;2022-07-10T16:59:55;2.28;;;0.85;;
33266;SDS011;19638;49.080;11.896;2022-07-10T17:03:59;1.58;;;1.15;;
33266;SDS011;19638;49.080;11.896;2022-07-10T17:08:04;4.18;;;1.02;;
33266;SDS011;19638;49.080;11.896;2022-07-10T17:12:10;3.03;;;0.95;;
33266;SDS011;19638;49.080;11.896;2022-07-10T17:16:13;1.48;;;1.30;;
33266;SDS011;19638;49.080;11.896;2022-07-10T17:20:17;2.95;;;1.00;;
33266;SDS011;19638;49.080;11.896;2022-07-10T17:24:21;3.35;;;1.10;;
33266;SDS011;19638;49.080;11.896;2022-07-10T17:28:25;1.98;;;1.25;;
33266;SDS011;19638;49.080;11.896;2022-07-10T17:32:28;1.10;;;1.02;;
33266;SDS011;19638;49.080;11.896;2022-07-10T17:36:31;2.20;;;1.30;;
33266;SDS011;19638;49.080;11.896;2022-07-10T17:40:36;1.88;;;1.20;;
33266;SDS011;19638;49.080;11.896;2022-07-10T17:44:39;1.25;;;1.17;;
33266;SDS011;19638;49.080;11.896;2022-07-10T17:48:43;2.80;;;1.30;;
33266;SDS011;19638;49.080;11.896;2022-07-10T17:52:46;1.23;;;1.10;;
33266;SDS011;19638;49.080;11.896;2022-07-10T17:56:51;1.15;;;1.05;;
33266;SDS011;19638;49.080;11.896;2022-07-10T18:00:54;3.90;;;1.10;;
33266;SDS011;19638;49.080;11.896;2022-07-10T18:04:57;1.70;;;1.00;;
33266;SDS011;19638;49.080;11.896;2022-07-10T18:09:01;1.55;;;0.90;;
33266;SDS011;19638;49.080;11.896;2022-07-10T18:13:06;2.60;;;1.17;;
33266;SDS011;19638;49.080;11.896;2022-07-10T18:17:09;1.95;;;1.00;;
33266;SDS011;19638;49.080;11.896;2022-07-10T18:21:13;1.23;;;1.08;;
33266;SDS011;19638;49.080;11.896;2022-07-10T18:25:17;1.52;;;1.10;;
33266;SDS011;19638;49.080;11.896;2022-07-10T18:29:22;6.43;;;1.10;;
33266;SDS011;19638;49.080;11.896;2022-07-10T18:33:25;1.88;;;1.25;;
33266;SDS011;19638;49.080;11.896;2022-07-10T18:38:00;1.50;;;1.10;;
33266;SDS011;19638;49.080;11.896;2022-07-10T18:42:04;3.28;;;1.48;;
33266;SDS011;19638;49.080;11.896;2022-07-10T18:46:09;3.38;;;1.10;;
33266;SDS011;19638;49.080;11.896;2022-07-10T18:50:13;2.97;;;1.30;;
33266;SDS011;19638;49.080;11.896;2022-07-10T18:54:16;4.30;;;1.50;;
33266;SDS011;19638;49.080;11.896;2022-07-10T18:58:20;3.13;;;1.40;;
33266;SDS011;19638;49.080;11.896;2022-07-10T19:02:24;2.55;;;1.35;;
33266;SDS011;19638;49.080;11.896;2022-07-10T19:06:28;1.40;;;1.17;;
33266;SDS011;19638;49.080;11.896;2022-07-10T19:10:33;3.47;;;1.40;;
33266;SDS011;19638;49.080;11.896;2022-07-10T19:14:36;2.20;;;1.20;;
33266;SDS011;19638;49.080;11.896;2022-07-10T19:18:40;3.22;;;1.33;;
33266;SDS011;19638;49.080;11.896;2022-07-10T19:22:47;4.30;;;1.38;;
33266;SDS011;19638;49.080;11.896;2022-07-10T19:26:51;1.48;;;1.38;;
33266;SDS011;19638;49.080;11.896;2022-07-10T19:30:54;1.70;;;1.60;;
33266;SDS011;19638;49.080;11.896;2022-07-10T19:34:58;3.05;;;1.38;;
33266;SDS011;19638;49.080;11.896;2022-07-10T19:39:02;2.20;;;1.50;;
33266;SDS011;19638;49.080;11.896;2022-07-10T19:43:05;5.90;;;1.63;;
33266;SDS011;19638;49.080;11.896;2022-07-10T19:47:08;3.13;;;1.38;;
33266;SDS011;19638;49.080;11.896;2022-07-10T19:51:13;5.13;;;1.60;;
33266;SDS011;19638;49.080;11.896;2022-07-10T19:55:16;3.67;;;1.50;;
33266;SDS011;19638;49.080;11.896;2022-07-10T19:59:20;3.28;;;1.42;;
33266;SDS011;19638;49.080;11.896;2022-07-10T20:03:23;3.60;;;1.40;;
33266;SDS011;19638;49.080;11.896;2022-07-10T20:07:28;3.42;;;1.50;;
33266;SDS011;19638;49.080;11.896;2022-07-10T20:11:31;2.38;;;1.58;;
33266;SDS011;19638;49.080;11.896;2022-07-10T20:15:35;6.13;;;1.50;;
33266;SDS011;19638;49.080;11.896;2022-07-10T20:19:58;2.20;;;2.03;;
33266;SDS011;19638;49.080;11.896;2022-07-10T20:24:03;2.50;;;1.42;;
33266;SDS011;19638;49.080;11.896;2022-07-10T20:28:06;1.95;;;1.60;;
33266;SDS011;19638;49.080;11.896;2022-07-10T20:32:11;1.80;;;1.50;;
33266;SDS011;19638;49.080;11.896;2022-07-10T20:36:15;4.03;;;1.60;;
33266;SDS011;19638;49.080;11.896;2022-07-10T20:40:37;1.83;;;1.65;;
33266;SDS011;19638;49.080;11.896;2022-07-10T20:44:40;2.15;;;1.50;;
33266;SDS011;19638;49.080;11.896;2022-07-10T20:48:43;2.67;;;1.50;;
33266;SDS011;19638;49.080;11.896;2022-07-10T20:52:47;1.60;;;1.50;;
33266;SDS011;19638;49.080;11.896;2022-07-10T20:56:51;4.05;;;1.90;;
33266;SDS011;19638;49.080;11.896;2022-07-10T21:00:55;1.30;;;1.20;;
33266;SDS011;19638;49.080;11.896;2022-07-10T21:04:58;3.72;;;1.40;;
33266;SDS011;19638;49.080;11.896;2022-07-10T21:09:01;1.40;;;1.30;;
33266;SDS011;19638;49.080;11.896;2022-07-10T21:13:06;4.53;;;1.52;;
33266;SDS011;19638;49.080;11.896;2022-07-10T21:17:09;2.58;;;1.60;;
33266;SDS011;19638;49.080;11.896;2022-07-10T21:21:12;2.75;;;1.52;;
33266;SDS011;19638;49.080;11.896;2022-07-10T21:25:15;1.25;;;1.25;;
33266;SDS011;19638;49.080;11.896;2022-07-10T21:29:20;1.75;;;1.27;;
33266;SDS011;19638;49.080;11.896;2022-07-10T21:33:23;1.70;;;1.60;;
33266;SDS011;19638;49.080;11.896;2022-07-10T21:37:26;2.47;;;1.75;;
33266;SDS011;19638;49.080;11.896;2022-07-10T21:41:29;1.92;;;1.63;;
33266;SDS011;19638;49.080;11.896;2022-07-10T21:45:34;1.42;;;1.30;;
33266;SDS011;19638;49.080;11.896;2022-07-10T21:49:38;2.03;;;1.30;;
33266;SDS011;19638;49.080;11.896;2022-07-10T21:53:41;2.22;;;1.50;;
33266;SDS011;19638;49.080;11.896;2022-07-10T21:57:45;3.70;;;1.25;;
33266;SDS011;19638;49.080;11.896;2022-07-10T22:01:50;5.28;;;1.38;;
33266;SDS011;19638;49.080;11.896;2022-07-10T22:05:53;2.47;;;1.40;;
33266;SDS011;19638;49.080;11.896;2022-07-10T22:09:56;1.40;;;1.30;;
33266;SDS011;19638;49.080;11.896;2022-07-10T22:14:00;2.00;;;1.67;;
33266;SDS011;19638;49.080;11.896;2022-07-10T22:18:04;1.85;;;1.30;;
33266;SDS011;19638;49.080;11.896;2022-07-10T22:22:08;1.58;;;1.17;;
33266;SDS011;19638;49.080;11.896;2022-07-10T22:26:11;1.30;;;1.20;;
33266;SDS011;19638;49.080;11.896;2022-07-10T22:30:14;1.60;;;1.30;;
33266;SDS011;19638;49.080;11.896;2022-07-10T22:34:41;3.05;;;1.38;;
33266;SDS011;19638;49.080;11.896;2022-07-10T22:38:44;2.15;;;1.30;;
33266;SDS011;19638;49.080;11.896;2022-07-10T22:42:47;1.88;;;1.40;;
33266;SDS011;19638;49.080;11.896;2022-07-10T22:46:51;3.20;;;1.30;;
33266;SDS011;19638;49.080;11.896;2022-07-10T22:50:56;1.23;;;1.23;;
33266;SDS011;19638;49.080;11.896;2022-07-10T22:54:59;3.42;;;1.20;;
33266;SDS011;19638;49.080;11.896;2022-07-10T22:59:02;1.77;;;1.23;;
33266;SDS011;19638;49.080;11.896;2022-07-10T23:03:05;1.60;;;1.30;;
33266;SDS011;19638;49.080;11.896;2022-07-10T23:07:10;2.97;;;1.33;;
33266;SDS011;19638;49.080;11.896;2022-07-10T23:11:14;5.28;;;1.42;;
33266;SDS011;19638;49.080;11.896;2022-07-10T23:15:17;3.22;;;1.23;;
33266;SDS011;19638;49.080;11.896;2022-07-10T23:19:21;1.40;;;1.30;;
33266;SDS011;19638;49.080;11.896;2022-07-10T23:23:25;3.95;;;1.95;;
33266;SDS011;19638;49.080;11.896;2022-07-10T23:27:28;2.30;;;1.42;;
33266;SDS011;19638;49.080;11.896;2022-07-10T23:31:32;2.15;;;1.30;;
33266;SDS011;19638;49.080;11.896;2022-07-10T23:35:35;3.75;;;1.40;;
33266;SDS011;19638;49.080;11.896;2022-07-10T23:39:40;2.88;;;1.20;;
33266;SDS011;19638;49.080;11.896;2022-07-10T23:43:43;3.75;;;1.40;;
33266;SDS011;19638;49.080;11.896;2022-07-10T23:47:47;4.03;;;1.42;;
33266;SDS011;19638;49.080;11.896;2022-07-10T23:51:50;1.83;;;1.27;;
33266;SDS011;19638;49.080;11.896;2022-07-10T23:55:55;4.90;;;1.50;;
33266;SDS011;19638;49.080;11.896;2022-07-10T23:59:58;1.80;;;1.40;;
